.
WxDataArchive / Data Records for 2006-11-10
2006-11-09 November 2006 2006-11-11

Data Records for Friday, 10 November 2006

Time	Temp	Chill	HIndex	Humid	Dewpt	 Wind 	HiWind	WindDir	Rain 	Barom 
-----	----	-----	------	-----	-----	------	------	-------	-----	----- 
00:00	46.5	46.5	46.5	70	37.3	0	0	---	0.00	29.858 
00:05	46.4	46.4	46.4	70	37.2	0	0	---	0.00	29.858 
00:10	46.5	46.5	46.5	70	37.3	0	0	---	0.00	29.858 
00:15	46.5	46.5	46.5	70	37.3	0	0	---	0.00	29.861 
00:20	46.8	46.8	46.8	70	37.5	0	1	338	0.00	29.861 
00:25	47.0	47.0	47.0	69	37.4	0	1	338	0.00	29.861 
00:30	47.0	47.0	47.0	69	37.4	0	3	0	0.00	29.865 
00:35	46.8	46.8	46.8	70	37.5	0	0	---	0.00	29.865 
00:40	46.7	46.7	46.7	70	37.4	0	0	---	0.00	29.865 
00:45	46.5	46.5	46.5	70	37.3	0	0	---	0.00	29.867 
00:50	46.2	46.2	46.2	70	37.0	0	0	---	0.00	29.867 
00:55	46.0	46.0	46.0	71	37.1	0	0	---	0.00	29.867 
01:00	45.7	45.7	45.7	72	37.2	0	0	---	0.00	29.879 
01:05	45.4	45.4	45.4	72	36.9	0	0	---	0.00	29.879 
01:10	45.2	45.2	45.2	73	37.1	0	0	---	0.00	29.879 
01:15	45.1	45.1	45.1	73	37.0	0	0	---	0.00	29.878 
01:20	44.9	44.9	44.9	73	36.8	0	0	---	0.00	29.878 
01:25	44.8	44.8	44.8	74	37.0	0	0	---	0.00	29.878 
01:30	44.6	44.6	44.6	74	36.8	0	1	0	0.00	29.878 
01:35	44.3	44.3	44.3	74	36.5	0	1	0	0.00	29.878 
01:40	44.2	44.2	44.2	75	36.8	0	0	---	0.00	29.878 
01:45	43.9	43.9	43.9	76	36.8	0	1	0	0.00	29.879 
01:50	43.9	43.9	43.9	76	36.8	0	1	0	0.00	29.879 
01:55	43.9	43.9	43.9	76	36.8	0	0	---	0.00	29.879 
02:00	43.8	43.8	43.8	77	37.1	0	0	---	0.00	29.888 
02:05	43.6	43.6	43.6	77	36.9	0	0	---	0.00	29.888 
02:10	43.6	43.6	43.6	77	36.9	0	0	---	0.00	29.888 
02:15	43.5	43.5	43.5	77	36.8	0	0	---	0.00	29.888 
02:20	43.5	43.5	43.5	78	37.1	0	0	---	0.00	29.888 
02:25	43.5	43.5	43.5	78	37.1	0	0	---	0.00	29.888 
02:30	43.6	43.6	43.6	77	36.9	0	1	0	0.00	29.893 
02:35	43.9	43.9	43.9	77	37.2	0	1	0	0.00	29.893 
02:40	44.2	44.2	44.2	76	37.1	0	2	0	0.00	29.893 
02:45	44.5	44.5	44.5	76	37.4	0	3	22	0.00	29.893 
02:50	44.6	44.6	44.6	75	37.2	1	3	45	0.00	29.893 
02:55	44.8	44.8	44.8	75	37.4	0	3	45	0.00	29.893 
03:00	44.9	44.9	44.9	75	37.5	0	2	45	0.00	29.894 
03:05	44.8	44.8	44.8	75	37.4	0	3	45	0.00	29.894 
03:10	44.8	44.8	44.8	75	37.4	1	3	45	0.00	29.894 
03:15	44.9	44.9	44.9	75	37.5	1	3	45	0.00	29.893 
03:20	44.9	44.9	44.9	75	37.5	1	3	45	0.00	29.893 
03:25	44.8	44.8	44.8	76	37.7	2	6	68	0.00	29.893 
03:30	44.8	44.8	44.8	76	37.7	1	4	112	0.00	29.892 
03:35	44.8	44.8	44.8	76	37.7	2	9	112	0.00	29.892 
03:40	44.9	44.9	44.9	76	37.8	3	7	112	0.00	29.892 
03:45	44.8	44.8	44.8	76	37.7	2	5	90	0.00	29.891 
03:50	44.8	42.9	44.8	77	38.0	4	7	112	0.00	29.891 
03:55	44.6	44.6	44.6	77	37.8	2	7	112	0.00	29.891 
04:00	44.5	44.5	44.5	77	37.7	2	6	112	0.00	29.900 
04:05	44.3	44.3	44.3	78	37.9	3	7	112	0.00	29.900 
04:10	44.2	44.2	44.2	78	37.8	3	6	112	0.00	29.900 
04:15	43.9	43.9	43.9	79	37.8	3	6	90	0.00	29.908 
04:20	43.6	43.6	43.6	80	37.8	2	7	90	0.00	29.908 
04:25	43.5	43.5	43.5	81	38.1	2	5	90	0.00	29.908 
04:30	43.2	43.2	43.2	81	37.8	3	6	112	0.00	29.902 
04:35	43.1	43.1	43.1	82	38.0	3	6	90	0.00	29.902 
04:40	42.9	42.9	42.9	82	37.8	2	5	90	0.00	29.902 
04:45	42.8	42.8	42.8	83	38.0	2	6	112	0.00	29.907 
04:50	42.6	42.6	42.6	84	38.1	2	5	90	0.00	29.907 
04:55	42.5	42.5	42.5	84	38.0	2	5	90	0.00	29.907 
05:00	42.3	42.3	42.3	84	37.8	1	3	112	0.00	29.917 
05:05	42.2	42.2	42.2	84	37.7	1	4	90	0.00	29.917 
05:10	42.1	42.1	42.1	85	37.9	1	3	90	0.00	29.917 
05:15	41.9	41.9	41.9	85	37.7	1	3	90	0.00	29.934 
05:20	41.9	41.9	41.9	86	38.0	1	4	90	0.00	29.934 
05:25	41.9	41.9	41.9	86	38.0	1	5	112	0.00	29.934 
05:30	42.3	42.3	42.3	87	38.7	2	5	112	0.00	29.938 
05:35	42.5	42.5	42.5	87	38.9	3	9	90	0.00	29.938 
05:40	42.6	42.6	42.6	87	39.0	2	6	90	0.00	29.938 
05:45	42.5	42.5	42.5	88	39.2	3	5	90	0.00	29.934 
05:50	42.3	42.3	42.3	88	39.0	2	6	90	0.00	29.934 
05:55	42.3	42.3	42.3	88	39.0	2	4	90	0.00	29.934 
06:00	42.2	42.2	42.2	89	39.2	2	4	90	0.00	29.935 
06:05	42.1	42.1	42.1	89	39.1	2	4	90	0.00	29.935 
06:10	42.1	42.1	42.1	90	39.4	2	4	90	0.00	29.935 
06:15	42.1	42.1	42.1	90	39.4	2	4	90	0.00	29.935 
06:20	42.1	42.1	42.1	90	39.4	2	3	90	0.00	29.935 
06:25	42.1	42.1	42.1	91	39.7	3	6	90	0.00	29.935 
06:30	42.1	42.1	42.1	91	39.7	2	5	112	0.00	29.937 
06:35	41.9	41.9	41.9	91	39.5	2	5	90	0.00	29.937 
06:40	41.9	41.9	41.9	91	39.5	3	5	112	0.00	29.937 
06:45	41.9	41.9	41.9	91	39.5	3	6	112	0.00	29.933 
06:50	41.8	41.8	41.8	91	39.4	2	6	112	0.00	29.933 
06:55	41.8	41.8	41.8	91	39.4	3	6	90	0.00	29.933 
07:00	41.6	41.6	41.6	92	39.5	2	5	112	0.00	29.937 
07:05	41.6	41.6	41.6	92	39.5	2	5	90	0.00	29.937 
07:10	41.6	41.6	41.6	92	39.5	2	5	90	0.00	29.937 
07:15	41.6	41.6	41.6	92	39.5	2	5	90	0.00	29.941 
07:20	41.5	41.5	41.5	92	39.4	2	6	90	0.00	29.941 
07:25	41.5	41.5	41.5	92	39.4	2	4	90	0.00	29.941 
07:30	41.5	41.5	41.5	92	39.4	2	5	112	0.00	29.943 
07:35	41.5	41.5	41.5	92	39.4	2	4	90	0.00	29.943 
07:40	41.6	41.6	41.6	92	39.5	3	7	112	0.00	29.943 
07:45	41.8	41.8	41.8	92	39.6	3	7	112	0.00	29.946 
07:50	42.1	42.1	42.1	91	39.7	3	7	112	0.00	29.946 
07:55	42.2	39.9	42.2	91	39.8	4	9	90	0.00	29.946 
08:00	42.3	42.3	42.3	90	39.6	3	7	112	0.00	29.948 
08:05	42.5	42.5	42.5	90	39.8	3	10	90	0.00	29.948 
08:10	42.6	42.6	42.6	90	39.9	3	6	112	0.00	29.948 
08:15	42.6	42.6	42.6	90	39.9	3	7	112	0.00	29.950 
08:20	42.8	42.8	42.8	90	40.1	3	7	90	0.00	29.950 
08:25	43.1	43.1	43.1	89	40.1	3	7	90	0.00	29.950 
08:30	43.2	41.0	43.2	88	39.9	4	10	90	0.00	29.948 
08:35	43.2	40.2	43.2	88	39.9	5	11	90	0.00	29.948 
08:40	43.3	41.1	43.3	88	40.0	4	7	90	0.00	29.948 
08:45	43.5	40.6	43.5	88	40.2	5	10	112	0.00	29.936 
08:50	43.6	40.7	43.6	88	40.3	5	10	90	0.00	29.936 
08:55	43.8	40.9	43.8	87	40.2	5	11	90	0.00	29.936 
09:00	44.1	41.3	44.1	87	40.5	5	13	112	0.00	29.928 
09:05	44.5	41.8	44.5	87	40.9	5	11	90	0.00	29.928 
09:10	44.8	42.1	44.8	86	40.9	5	11	90	0.00	29.928 
09:15	45.2	42.6	45.2	85	41.0	5	12	90	0.00	29.933 
09:20	45.4	42.8	45.4	84	40.9	5	10	90	0.00	29.933 
09:25	45.5	42.3	45.5	84	41.0	6	13	112	0.00	29.933 
09:30	45.8	43.3	45.8	84	41.2	5	11	112	0.00	29.921 
09:35	46.0	43.5	46.0	84	41.4	5	15	90	0.00	29.921 
09:40	46.0	42.4	46.0	84	41.4	7	13	90	0.00	29.921 
09:45	46.2	43.1	46.2	84	41.6	6	13	112	0.00	29.924 
09:50	46.4	42.9	46.4	83	41.5	7	14	90	0.00	29.924 
09:55	46.5	43.5	46.5	82	41.3	6	12	112	0.00	29.924 
10:00	46.8	44.5	46.8	83	41.9	5	14	90	0.00	29.920 
10:05	47.0	43.6	47.0	82	41.8	7	14	90	0.00	29.920 
10:10	47.3	44.5	47.3	82	42.1	6	10	112	0.00	29.920 
10:15	47.9	45.2	47.9	81	42.4	6	16	90	0.00	29.912 
10:20	48.0	44.8	48.0	81	42.5	7	14	90	0.00	29.912 
10:25	48.2	46.1	48.2	81	42.6	5	11	112	0.00	29.912 
10:30	48.8	47.5	48.8	80	42.9	4	9	90	0.00	29.919 
10:35	48.9	47.6	48.9	79	42.7	4	10	112	0.00	29.919 
10:40	48.9	47.6	48.9	79	42.7	4	11	90	0.00	29.919 
10:45	49.2	47.3	49.2	79	43.0	5	9	112	0.00	29.919 
10:50	49.2	46.7	49.2	79	43.0	6	12	90	0.00	29.919 
10:55	49.6	47.7	49.6	78	43.0	5	11	90	0.00	29.919 
11:00	49.8	48.6	49.8	79	43.6	4	10	90	0.00	29.913 
11:05	49.9	47.5	49.9	78	43.3	6	11	112	0.00	29.913 
11:10	50.2	50.2	50.2	77	43.3	5	10	112	0.00	29.913 
11:15	50.4	50.4	50.4	78	43.8	5	10	112	0.00	29.919 
11:20	50.5	50.5	50.5	76	43.2	5	10	112	0.00	29.919 
11:25	50.4	50.4	50.4	77	43.5	5	11	112	0.00	29.919 
11:30	50.5	50.5	50.5	77	43.6	5	9	112	0.00	29.911 
11:35	50.8	50.8	50.8	77	43.9	5	11	90	0.00	29.911 
11:40	51.1	51.1	51.1	77	44.1	4	11	112	0.00	29.911 
11:45	51.1	51.1	51.1	77	44.1	4	10	112	0.00	29.902 
11:50	51.1	51.1	51.1	77	44.1	4	10	90	0.00	29.902 
11:55	51.3	51.3	51.3	77	44.3	4	11	90	0.00	29.902 
12:00	51.3	51.3	51.3	77	44.3	5	12	112	0.00	29.886 
12:05	51.6	51.6	51.6	77	44.6	4	9	112	0.00	29.886 
12:10	51.7	51.7	51.7	77	44.7	4	9	90	0.00	29.886 
12:15	52.0	52.0	52.0	76	44.7	4	9	90	0.00	29.881 
12:20	51.9	51.9	51.9	75	44.2	4	9	90	0.00	29.881 
12:25	51.9	51.9	51.9	75	44.2	4	7	112	0.00	29.881 
12:30	51.9	51.9	51.9	76	44.6	4	9	112	0.00	29.875 
12:35	51.7	51.7	51.7	77	44.7	3	6	112	0.00	29.875 
12:40	52.0	52.0	52.0	77	45.0	2	6	90	0.00	29.875 
12:45	52.0	52.0	52.0	76	44.7	4	10	112	0.00	29.869 
12:50	52.0	52.0	52.0	76	44.7	5	10	90	0.00	29.869 
12:55	52.3	52.3	52.3	76	45.0	5	11	112	0.00	29.869 
13:00	52.9	52.9	52.9	75	45.2	6	14	90	0.00	29.843 
13:05	53.1	53.1	53.1	74	45.0	4	13	90	0.00	29.843 
13:10	52.8	52.8	52.8	75	45.1	6	13	90	0.00	29.843 
13:15	53.1	53.1	53.1	76	45.7	5	10	112	0.00	29.842 
13:20	53.2	53.2	53.2	75	45.5	6	15	112	0.00	29.842 
13:25	53.2	53.2	53.2	76	45.8	6	14	112	0.00	29.842 
13:30	53.6	53.6	53.6	75	45.9	5	12	112	0.00	29.825 
13:35	53.5	53.5	53.5	74	45.4	6	13	112	0.00	29.825 
13:40	53.5	53.5	53.5	74	45.4	5	10	90	0.00	29.825 
13:45	54.1	54.1	54.1	74	46.0	4	7	112	0.00	29.824 
13:50	54.2	54.2	54.2	74	46.1	5	10	112	0.00	29.824 
13:55	54.2	54.2	54.2	74	46.1	5	10	112	0.00	29.824 
14:00	54.1	54.1	54.1	74	46.0	6	11	112	0.00	29.821 
14:05	54.1	54.1	54.1	74	46.0	5	12	112	0.00	29.821 
14:10	53.9	53.9	53.9	75	46.2	6	13	112	0.00	29.821 
14:15	53.6	53.6	53.6	75	45.9	8	13	90	0.00	29.810 
14:20	53.8	53.8	53.8	75	46.1	6	11	112	0.00	29.810 
14:25	53.8	53.8	53.8	76	46.4	6	11	90	0.00	29.810 
14:30	53.9	53.9	53.9	76	46.5	5	11	112	0.00	29.808 
14:35	54.1	54.1	54.1	75	46.4	5	11	112	0.00	29.808 
14:40	54.2	54.2	54.2	75	46.4	5	10	112	0.00	29.808 
14:45	54.4	54.4	54.4	76	47.0	5	11	90	0.00	29.796 
14:50	54.5	54.5	54.5	74	46.4	6	13	112	0.00	29.796 
14:55	54.5	54.5	54.5	75	46.7	5	11	90	0.00	29.796 
15:00	54.2	54.2	54.2	75	46.4	5	11	90	0.00	29.795 
15:05	54.1	54.1	54.1	76	46.7	5	10	112	0.00	29.795 
15:10	54.2	54.2	54.2	76	46.8	5	9	90	0.00	29.795 
15:15	54.5	54.5	54.5	76	47.1	6	15	90	0.00	29.783 
15:20	54.7	54.7	54.7	75	46.9	6	12	112	0.00	29.783 
15:25	54.7	54.7	54.7	75	46.9	6	12	112	0.00	29.783 
15:30	54.7	54.7	54.7	75	46.9	4	10	90	0.00	29.780 
15:35	54.7	54.7	54.7	75	46.9	4	11	112	0.00	29.780 
15:40	54.7	54.7	54.7	75	46.9	6	11	90	0.00	29.780 
15:45	54.7	54.7	54.7	76	47.3	4	11	90	0.00	29.780 
15:50	54.7	54.7	54.7	76	47.3	5	13	90	0.00	29.780 
15:55	54.8	54.8	54.8	76	47.4	4	9	90	0.00	29.780 
16:00	54.8	54.8	54.8	76	47.4	4	8	90	0.00	29.774 
16:05	54.7	54.7	54.7	76	47.3	5	10	112	0.00	29.774 
16:10	54.7	54.7	54.7	76	47.3	5	11	90	0.00	29.774 
16:15	54.7	54.7	54.7	76	47.3	4	7	112	0.00	29.771 
16:20	54.5	54.5	54.5	76	47.1	5	9	112	0.00	29.771 
16:25	54.5	54.5	54.5	77	47.4	4	10	90	0.00	29.771 
16:30	54.5	54.5	54.5	77	47.4	4	9	90	0.00	29.763 
16:35	54.5	54.5	54.5	77	47.4	4	12	90	0.00	29.763 
16:40	54.4	54.4	54.4	77	47.3	4	9	90	0.00	29.763 
16:45	54.4	54.4	54.4	77	47.3	5	11	90	0.00	29.760 
16:50	54.4	54.4	54.4	77	47.3	5	10	112	0.00	29.760 
16:55	54.2	54.2	54.2	77	47.1	6	11	90	0.00	29.760 
17:00	54.2	54.2	54.2	77	47.1	7	12	90	0.00	29.745 
17:05	54.1	54.1	54.1	77	47.0	6	13	90	0.00	29.745 
17:10	53.9	53.9	53.9	77	46.9	5	12	90	0.00	29.745 
17:15	53.8	53.8	53.8	77	46.8	5	11	112	0.00	29.744 
17:20	53.6	53.6	53.6	77	46.6	5	11	90	0.00	29.744 
17:25	53.5	53.5	53.5	77	46.5	4	11	112	0.00	29.744 
17:30	53.3	53.3	53.3	77	46.3	5	14	90	0.00	29.733 
17:35	53.2	53.2	53.2	77	46.2	5	11	112	0.00	29.733 
17:40	52.9	52.9	52.9	78	46.2	5	12	112	0.00	29.733 
17:45	52.8	52.8	52.8	78	46.1	5	12	112	0.00	29.722 
17:50	52.6	52.6	52.6	78	45.9	5	10	112	0.00	29.722 
17:55	52.5	52.5	52.5	78	45.8	5	9	90	0.00	29.722 
18:00	52.5	52.5	52.5	78	45.8	5	14	90	0.00	29.717 
18:05	52.5	52.5	52.5	79	46.2	4	7	90	0.00	29.717 
18:10	52.5	52.5	52.5	79	46.2	4	9	112	0.00	29.717 
18:15	52.3	52.3	52.3	79	46.0	3	7	112	0.00	29.715 
18:20	52.3	52.3	52.3	79	46.0	3	7	90	0.00	29.715 
18:25	52.2	52.2	52.2	79	45.9	4	7	90	0.00	29.715 
18:30	52.2	52.2	52.2	80	46.2	4	11	90	0.00	29.716 
18:35	52.0	52.0	52.0	80	46.0	5	10	90	0.00	29.716 
18:40	51.9	51.9	51.9	80	45.9	4	10	90	0.00	29.716 
18:45	51.9	51.9	51.9	80	45.9	4	9	90	0.00	29.708 
18:50	51.7	51.7	51.7	80	45.7	4	8	90	0.00	29.708 
18:55	51.7	51.7	51.7	81	46.1	3	9	90	0.00	29.708 
19:00	51.6	51.6	51.6	81	46.0	2	6	112	0.00	29.705 
19:05	51.4	51.4	51.4	81	45.8	4	7	112	0.00	29.705 
19:10	51.4	51.4	51.4	81	45.8	3	6	112	0.00	29.705 
19:15	51.3	51.3	51.3	81	45.7	4	10	90	0.00	29.704 
19:20	51.3	51.3	51.3	81	45.7	4	7	90	0.00	29.704 
19:25	51.3	51.3	51.3	81	45.7	3	7	112	0.00	29.704 
19:30	51.3	51.3	51.3	81	45.7	3	10	90	0.00	29.702 
19:35	51.3	51.3	51.3	81	45.7	2	5	90	0.00	29.702 
19:40	51.3	51.3	51.3	81	45.7	2	6	112	0.00	29.702 
19:45	51.1	51.1	51.1	81	45.5	3	6	112	0.00	29.693 
19:50	51.1	51.1	51.1	81	45.5	3	6	90	0.00	29.693 
19:55	51.0	51.0	51.0	81	45.4	3	8	90	0.00	29.693 
20:00	50.8	50.8	50.8	82	45.5	3	6	90	0.00	29.682 
20:05	50.8	50.8	50.8	82	45.5	3	7	90	0.00	29.682 
20:10	50.7	50.7	50.7	82	45.4	2	6	112	0.00	29.682 
20:15	50.5	50.5	50.5	82	45.2	2	6	90	0.00	29.669 
20:20	50.4	50.4	50.4	83	45.4	2	5	90	0.00	29.669 
20:25	50.2	50.2	50.2	83	45.2	3	7	90	0.00	29.669 
20:30	50.2	50.2	50.2	84	45.6	3	6	112	0.00	29.657 
20:35	50.2	50.2	50.2	84	45.6	3	5	112	0.00	29.657 
20:40	50.2	50.2	50.2	84	45.6	2	5	90	0.00	29.657 
20:45	50.2	50.2	50.2	84	45.6	3	7	90	0.01	29.642 
20:50	50.2	50.2	50.2	86	46.2	3	7	112	0.00	29.642 
20:55	50.1	50.1	50.1	86	46.1	3	10	112	0.00	29.642 
21:00	50.1	50.1	50.1	86	46.1	3	5	90	0.00	29.633 
21:05	50.2	50.2	50.2	86	46.2	2	4	112	0.00	29.633 
21:10	50.2	50.2	50.2	87	46.5	2	5	112	0.00	29.633 
21:15	50.4	50.4	50.4	86	46.4	2	6	90	0.00	29.625 
21:20	50.4	50.4	50.4	86	46.4	3	8	112	0.00	29.625 
21:25	50.5	50.5	50.5	86	46.5	3	5	90	0.00	29.625 
21:30	50.5	50.5	50.5	87	46.8	1	5	90	0.00	29.619 
21:35	50.7	50.7	50.7	87	47.0	3	6	90	0.00	29.619 
21:40	50.7	50.7	50.7	87	47.0	2	5	112	0.00	29.619 
21:45	50.8	50.8	50.8	87	47.1	2	5	90	0.00	29.605 
21:50	51.0	51.0	51.0	88	47.6	0	3	90	0.00	29.605 
21:55	51.1	51.1	51.1	87	47.4	2	5	90	0.00	29.605 
22:00	51.3	51.3	51.3	88	47.9	2	4	90	0.00	29.601 
22:05	51.6	51.6	51.6	87	47.9	2	4	90	0.00	29.601 
22:10	51.7	51.7	51.7	88	48.3	1	2	90	0.00	29.601 
22:15	51.9	51.9	51.9	87	48.2	1	2	90	0.00	29.593 
22:20	52.0	52.0	52.0	88	48.6	1	2	90	0.01	29.593 
22:25	52.2	52.2	52.2	88	48.8	1	2	90	0.00	29.593 
22:30	52.3	52.3	52.3	89	49.2	1	2	90	0.00	29.584 
22:35	52.5	52.5	52.5	90	49.7	0	1	90	0.00	29.584 
22:40	52.5	52.5	52.5	90	49.7	0	5	90	0.00	29.584 
22:45	52.8	52.8	52.8	90	49.9	5	11	292	0.00	29.654 
22:50	53.2	53.2	53.2	91	50.6	3	6	248	0.00	29.654 
22:55	55.1	55.1	55.1	92	52.8	6	15	270	0.00	29.654 
23:00	54.1	54.1	54.1	84	49.4	6	21	292	0.01	29.674 
23:05	52.2	52.2	52.2	84	47.5	4	10	338	0.00	29.674 
23:10	50.5	50.5	50.5	86	46.5	3	9	315	0.00	29.674 
23:15	49.2	47.9	49.2	86	45.2	4	10	338	0.00	29.683 
23:20	48.5	48.5	48.5	86	44.5	3	6	338	0.00	29.683 
23:25	47.9	47.9	47.9	87	44.2	3	13	22	0.00	29.683 
23:30	47.4	47.4	47.4	88	44.0	2	6	0	0.00	29.666 
23:35	47.0	47.0	47.0	88	43.6	2	6	315	0.00	29.666 
23:40	46.8	46.8	46.8	88	43.4	1	5	45	0.00	29.666 
23:45	46.5	46.5	46.5	88	43.1	1	5	338	0.00	29.655 
23:50	46.4	46.4	46.4	89	43.3	1	3	90	0.00	29.655 
23:55	46.2	46.2	46.2	88	42.8	1	5	22	0.00	29.655 

CoCoRaHS
IN-AL-39
A2 Web Hosting
Creative Commons License
GoDaddy
Look for:

loaded 2017-12-11 14:16:31 • last modified 2010-11-18 10:43:29
Privacy PolicyDisclaimer
• wx.awcolley.com is powered by PmWiki v.2002016 •
• all content (unless otherwise noted) © 2017 A W Colley